• Join FlightAware (Why Join?)
  • Login
  • US Flag 
03:20PM EDT


 

Airport Tracker/Info


-or-


 

Live Flight TrackerFlight Track Log ✈ DAL159 ✈ 04-May-2013 ✈ KDTW - RKSI / ICN

Flight Track Log - Related Links

Times and Time Zones

All times are in EDT time to prevent confusion due to time zone crossing. See the DAL159 flight status page for this flight to view local times or setup timezone preferences in your user account.

Time Position Orientation Groundspeed Altitude Reporting Facility
EDT Latitude Longitude Course Direction KTS MPH feet Rate Location/Type
12:49PM 42.1925 -83.3914 North 189 217 1,400  Level Cleveland Center
12:50PM 42.1358 -83.4869 231° Southwest 268 308 2,900 1,500 Climbing Cleveland Center
12:52PM 42.7165 -83.3500 North  Level FlightAware Approximate
12:53PM 42.8457 -83.3500 North  Level FlightAware Approximate
12:54PM 42.9726 -83.3667 North  Level FlightAware Approximate
12:56PM 42.6080 -83.5310 231° Southwest 389 448 12,900  Level FlightAware
12:57PM 42.6910 -83.4870 21° North 399 459 14,300 1,620 Climbing FlightAware
12:58PM 42.7470 -83.4560 22° Northeast 412 474 15,100 1,620 Climbing FlightAware
12:58PM 42.8350 -83.4190 17° North 426 490 16,500 1,680 Climbing FlightAware
12:59PM 42.8960 -83.4260 355° North 433 498 17,400 1,800 Climbing FlightAware
01:00PM 42.9770 -83.4460 350° North 439 505 18,600 1,740 Climbing FlightAware
01:00PM 43.0680 -83.4680 350° North 443 510 19,900 1,680 Climbing FlightAware
01:01PM 43.1510 -83.4880 350° North 448 516 21,000 1,560 Climbing FlightAware
01:02PM 43.2340 -83.5070 351° North 455 524 22,000 1,320 Climbing FlightAware
01:02PM 43.3210 -83.5270 351° North 461 531 22,900 1,260 Climbing FlightAware
01:03PM 43.4100 -83.5490 350° North 467 537 23,800 1,260 Climbing FlightAware
01:04PM 43.5090 -83.5730 350° North 475 547 24,700 1,080 Climbing FlightAware
01:04PM 43.5970 -83.5940 350° North 480 552 25,400 1,020 Climbing FlightAware
01:05PM 43.6940 -83.6180 350° North 485 558 26,200 960 Climbing FlightAware
01:06PM 43.7820 -83.6390 350° North 490 564 26,800 840 Climbing FlightAware
01:07PM 43.8850 -83.6650 350° North 499 574 27,400 840 Climbing FlightAware
01:07PM 43.9770 -83.6870 350° North 502 578 28,000 900 Climbing FlightAware
01:08PM 44.0680 -83.7100 350° North 505 581 28,600 840 Climbing FlightAware
01:09PM 44.1700 -83.7350 350° North 509 586 29,200 900 Climbing FlightAware
01:09PM 44.2630 -83.7580 350° North 507 583 29,900 1,080 Climbing FlightAware
01:10PM 44.3680 -83.7840 350° North 502 578 30,800 1,020 Climbing FlightAware
01:11PM 44.4570 -83.8070 350° North 500 575 31,400 900 Climbing FlightAware
01:11PM 44.5490 -83.8300 350° North 497 572 32,000 420 Climbing FlightAware
01:12PM 44.6470 -83.8550 350° North 496 571 32,000  Level FlightAware
01:13PM 44.7410 -83.8780 350° North 494 568 32,000  Level FlightAware
01:14PM 44.8300 -83.9010 350° North 492 566 32,000  Level FlightAware
01:14PM 44.9320 -83.9270 350° North 490 564 32,000  Level FlightAware
01:15PM 45.0230 -83.9500 350° North 489 563 32,000  Level FlightAware
01:16PM 45.1210 -83.9750 350° North 489 563 32,000  Level FlightAware
01:16PM 45.2070 -83.9970 350° North 490 564 32,000  Level FlightAware
01:17PM 45.3060 -84.0230 350° North 491 565 32,000  Level FlightAware
01:18PM 45.4010 -84.0480 350° North 491 565 32,000  Level FlightAware
01:18PM 45.4900 -84.0710 350° North 492 566 32,000  Level FlightAware
01:19PM 45.5790 -84.0940 350° North 493 567 32,000  Level FlightAware
01:20PM 45.6780 -84.1200 350° North 493 567 32,000  Level FlightAware
01:21PM 45.7820 -84.1470 350° North 494 568 32,000  Level FlightAware
01:21PM 45.8720 -84.1710 349° North 495 570 32,000  Level FlightAware
01:22PM 45.9620 -84.1950 349° North 495 570 32,000  Level FlightAware
01:23PM 46.0600 -84.2210 350° North 495 570 32,000  Level FlightAware
01:23PM 46.1510 -84.2450 350° North 496 571 32,000  Level FlightAware
01:24PM 46.2550 -84.2730 349° North 496 571 32,000  Level FlightAware
01:25PM 46.3430 -84.2960 350° North 496 571 32,000  Level FlightAware
01:25PM 46.4330 -84.3310 345° North 497 572 32,000  Level FlightAware
01:26PM 46.5270 -84.3810 340° North 496 571 32,000  Level FlightAware
01:27PM 46.6140 -84.4290 339° North 495 570 32,000  Level FlightAware
01:28PM 46.7120 -84.4850 339° North 495 570 32,000  Level FlightAware
01:28PM 46.7970 -84.5340 338° Northwest 496 571 32,000  Level FlightAware
01:29PM 46.8830 -84.5850 338° Northwest 496 571 32,000  Level FlightAware
01:30PM 46.9750 -84.6380 339° North 497 572 32,000  Level FlightAware
01:30PM 47.0610 -84.6880 338° Northwest 497 572 32,000  Level FlightAware
01:31PM 47.1460 -84.7380 338° Northwest 498 573 32,000  Level FlightAware
01:32PM 47.2440 -84.7960 338° Northwest 498 573 32,000  Level FlightAware
01:32PM 47.3300 -84.8460 338° Northwest 498 573 32,000  Level FlightAware
01:33PM 47.4250 -84.9020 338° Northwest 499 574 32,000  Level FlightAware
01:34PM 47.5100 -84.9530 338° Northwest 499 574 32,000  Level FlightAware
01:35PM 47.6080 -85.0110 338° Northwest 499 574 32,000  Level FlightAware
01:35PM 47.6950 -85.0630 338° Northwest 499 574 32,000  Level FlightAware
01:36PM 47.7870 -85.1180 338° Northwest 499 574 32,000  Level FlightAware
01:37PM 47.8690 -85.1670 338° Northwest 499 574 32,000  Level FlightAware
01:37PM 47.9420 -85.2130 337° Northwest 499 574 32,000  Level FlightAware
01:38PM 48.0320 -85.2700 337° Northwest 499 574 32,000  Level FlightAware
01:39PM 48.1040 -85.3160 337° Northwest 499 574 32,000  Level FlightAware
01:39PM 48.1770 -85.3620 337° Northwest 499 574 32,000  Level FlightAware
01:40PM 48.2490 -85.4080 337° Northwest 499 574 32,000  Level FlightAware
01:41PM 48.3210 -85.4540 337° Northwest 499 574 32,000  Level FlightAware
01:41PM 48.3930 -85.5000 337° Northwest 499 574 32,000  Level FlightAware
01:42PM 48.4840 -85.5580 337° Northwest 499 574 32,000  Level FlightAware
01:43PM 48.5560 -85.6040 337° Northwest 499 574 32,000  Level FlightAware
01:44PM 48.6280 -85.6510 337° Northwest 499 574 32,000  Level FlightAware
01:44PM 48.7000 -85.6970 337° Northwest 499 574 32,000  Level FlightAware
01:45PM 48.7910 -85.7550 337° Northwest 499 574 32,000  Level FlightAware
01:46PM 48.8630 -85.8020 337° Northwest 499 574 32,000  Level FlightAware
01:46PM 48.9350 -85.8480 337° Northwest 499 574 32,000  Level FlightAware
01:47PM 49.1500 -85.9500 337° Northwest 500 575 32,000  Level Winnipeg Center
01:48PM 49.3000 -86.0167 344° North 500 575 32,000  Level Winnipeg Center
01:49PM 49.4167 -86.0833 340° North 490 564 32,000  Level Winnipeg Center
01:50PM 49.5500 -86.1833 334° Northwest 500 575 32,000  Level Winnipeg Center
01:51PM 49.6667 -86.2667 335° Northwest 490 564 32,000  Level Winnipeg Center
01:52PM 49.8000 -86.3333 342° North 490 564 32,000  Level Winnipeg Center
01:53PM 49.9167 -86.4167 335° Northwest 490 564 32,000  Level Winnipeg Center
01:54PM 50.0500 -86.5167 334° Northwest 490 564 32,000  Level Winnipeg Center
01:55PM 50.1667 -86.5667 345° North 490 564 32,000  Level Winnipeg Center
01:56PM 50.3000 -86.6500 338° Northwest 500 575 32,000  Level Winnipeg Center
01:57PM 50.4333 -86.7167 342° North 500 575 32,000  Level Winnipeg Center
01:58PM 50.5000 -86.7333 351° North 490 564 32,000  Level Edmonton Center
01:59PM 50.7000 -86.8500 340° North 490 564 32,000  Level Winnipeg Center
02:00PM 50.8333 -86.9000 347° North 490 564 32,000  Level Winnipeg Center
02:01PM 50.9667 -86.9500 347° North 490 564 32,000  Level Winnipeg Center
02:02PM 51.0833 -87.0333 336° Northwest 490 564 32,000  Level Winnipeg Center
02:03PM 51.2333 -87.0833 348° North 490 564 32,000  Level Winnipeg Center
02:04PM 51.3667 -87.1500 343° North 490 564 32,000  Level Winnipeg Center
02:05PM 51.5000 -87.2167 343° North 490 564 32,000  Level Winnipeg Center
02:06PM 51.6167 -87.2667 345° North 490 564 32,000  Level Winnipeg Center
02:07PM 51.7500 -87.3500 339° North 490 564 32,000  Level Winnipeg Center
02:08PM 51.8833 -87.4000 347° North 490 564 32,000  Level Winnipeg Center
02:09PM 52.0167 -87.4833 339° North 490 564 32,000  Level Winnipeg Center
02:10PM 52.1500 -87.5333 347° North 490 564 32,000  Level Winnipeg Center
02:11PM 52.2833 -87.6167 339° North 490 564 32,000  Level Winnipeg Center
02:12PM 52.4000 -87.6667 345° North 490 564 32,000  Level Winnipeg Center
02:13PM 52.5333 -87.7333 343° North 490 564 32,000  Level Winnipeg Center
02:14PM 52.6500 -87.8167 337° Northwest 490 564 32,000  Level Winnipeg Center
02:15PM 52.8000 -87.8667 349° North 490 564 32,000  Level Winnipeg Center
02:16PM 52.9167 -87.9500 337° Northwest 480 552 32,000  Level Winnipeg Center
02:17PM 53.0333 -88.0167 341° North 480 552 32,000  Level Winnipeg Center
02:18PM 53.1833 -88.1000 342° North 480 552 32,000  Level Winnipeg Center
02:19PM 53.3000 -88.1500 346° North 480 552 32,000  Level Winnipeg Center
02:20PM 53.4333 -88.2000 347° North 480 552 32,000  Level Winnipeg Center
02:21PM 53.5667 -88.3000 336° Northwest 480 552 32,000  Level Winnipeg Center
02:22PM 53.6833 -88.3500 346° North 480 552 32,000  Level Winnipeg Center
02:23PM 53.8167 -88.4500 336° Northwest 480 552 32,000  Level Winnipeg Center
02:24PM 53.9000 -88.4667 353° North 480 552 32,000  Level Edmonton Center
02:25PM 54.0333 -88.5333 344° North 480 552 32,000  Level Edmonton Center
02:26PM 54.1333 -88.6000 339° North 480 552 32,000  Level Edmonton Center
02:27PM 54.2667 -88.6667 344° North 480 552 32,000  Level Edmonton Center
02:28PM 54.4000 -88.7500 340° North 480 552 32,000  Level Edmonton Center
02:29PM 54.5833 -88.8667 340° North 480 552 32,000  Level Winnipeg Center
02:30PM 54.7000 -88.9333 342° North 480 552 32,000  Level Winnipeg Center
02:31PM 54.8500 -89.0167 342° North 480 552 32,000  Level Winnipeg Center
02:32PM 54.9500 -89.0833 339° North 480 552 32,000  Level Winnipeg Center
02:33PM 55.0833 -89.1500 344° North 470 541 32,000  Level Winnipeg Center
02:34PM 55.2167 -89.2333 340° North 470 541 32,000  Level Winnipeg Center
02:35PM 55.3333 -89.3000 342° North 470 541 32,000  Level Winnipeg Center
02:36PM 55.4500 -89.3667 342° North 470 541 32,000  Level Winnipeg Center
02:37PM 55.5833 -89.4667 337° Northwest 470 541 32,000  Level Winnipeg Center
02:38PM 55.6500 -89.4833 352° North 460 529 32,000  Level Edmonton Center
02:39PM 55.7833 -89.5500 344° North 460 529 32,000  Level Edmonton Center
02:40PM 55.8833 -89.6167 340° North 460 529 32,000  Level Edmonton Center
02:41PM 56.0167 -89.6833 344° North 460 529 32,000  Level Edmonton Center
02:42PM 56.1333 -89.7667 338° Northwest 460 529 32,000  Level Edmonton Center
02:43PM 56.2667 -89.8333 344° North 460 529 32,000  Level Edmonton Center
02:44PM 56.4500 -90.0000 333° Northwest 460 529 32,000  Level Winnipeg Center
02:45PM 56.5667 -90.0333 351° North 470 541 32,000  Level Winnipeg Center
02:46PM 56.6833 -90.1000 343° North 470 541 32,000  Level Winnipeg Center
02:47PM 56.8167 -90.1667 345° North 460 529 32,000  Level Winnipeg Center
02:48PM 56.9333 -90.2500 339° North 460 529 32,000  Level Winnipeg Center
02:49PM 57.0667 -90.3167 345° North 470 541 32,000  Level Winnipeg Center
02:50PM 57.1167 -90.3000 10° North 460 529 32,000  Level Edmonton Center
02:51PM 57.2500 -90.3833 341° North 460 529 32,000  Level Edmonton Center
02:52PM 57.3833 -90.4333 349° North 460 529 32,000  Level Edmonton Center
02:53PM 57.5000 -90.5000 343° North 450 518 32,000  Level Edmonton Center
02:54PM 57.6167 -90.5833 339° North 460 529 32,000  Level Edmonton Center
02:55PM 57.7500 -90.6333 349° North 460 529 32,000  Level Edmonton Center
02:56PM 57.8667 -90.7000 343° North 450 518 32,000  Level Edmonton Center
02:57PM 57.9833 -90.7833 339° North 450 518 32,000  Level Edmonton Center
02:58PM 58.1167 -90.8333 349° North 450 518 32,000  Level Edmonton Center
02:59PM 58.2333 -90.9167 339° North 440 506 32,000  Level Edmonton Center
03:00PM 58.3500 -90.9667 347° North 440 506 32,000  Level Edmonton Center
03:01PM 58.4667 -91.0500 340° North 440 506 32,000  Level Edmonton Center
03:02PM 58.6000 -91.1000 349° North 440 506 32,000  Level Edmonton Center
03:03PM 58.7000 -91.1833 337° Northwest 440 506 32,000  Level Edmonton Center
03:04PM 58.8333 -91.2333 349° North 440 506 32,000  Level Edmonton Center
03:05PM 58.9500 -91.3333 336° Northwest 440 506 32,000  Level Edmonton Center
03:06PM 59.0667 -91.3833 348° North 440 506 32,000  Level Edmonton Center
03:07PM 59.1833 -91.4667 340° North 440 506 32,000  Level Edmonton Center
03:08PM 59.3167 -91.5167 349° North 440 506 32,000  Level Edmonton Center
03:09PM 59.4167 -91.6000 337° Northwest 440 506 32,000  Level Edmonton Center
03:10PM 59.5333 -91.6667 344° North 440 506 32,000  Level Edmonton Center
03:11PM 59.6667 -91.7500 342° North 440 506 32,000  Level Edmonton Center
03:12PM 59.7667 -91.8000 346° North 440 506 32,000  Level Edmonton Center
03:13PM 59.9000 -91.8833 343° North 440 506 32,000  Level Edmonton Center
03:14PM 60.0167 -91.9500 344° North 440 506 32,000  Level Edmonton Center
03:15PM 60.1167 -92.0500 334° Northwest 430 495 32,000  Level Edmonton Center
03:16PM 60.2500 -92.1000 349° North 430 495 32,000  Level Edmonton Center
03:17PM 60.3667 -92.2000 337° Northwest 430 495 32,000  Level Edmonton Center
03:18PM 60.4667 -92.2500 346° North 430 495 32,000  Level Edmonton Center
03:19PM 60.6000 -92.3167 346° North 430 495 32,000  Level Edmonton Center
03:20PM 60.7167 -92.4000 341° North 430 495 32,000  Level Edmonton Center
03:21PM 60.8167 -92.4667 342° North 430 495 32,000  Level Edmonton Center
03:22PM 60.9333 -92.5667 337° Northwest 430 495 32,000  Level Edmonton Center
03:23PM 61.0667 -92.6167 350° North 420 483 32,000  Level Edmonton Center
03:24PM 61.1667 -92.6833 342° North 420 483 32,000  Level Edmonton Center
03:25PM 61.2833 -92.7833 338° Northwest 420 483 32,000  Level Edmonton Center
03:26PM 61.3833 -92.8500 342° North 420 483 32,000  Level Edmonton Center
03:27PM 61.5000 -92.9167 345° North 420 483 32,000  Level Edmonton Center
03:28PM 61.6167 -93.0167 338° Northwest 420 483 32,000  Level Edmonton Center
03:29PM 61.7167 -93.0833 342° North 410 472 32,000  Level Edmonton Center
03:30PM 61.8333 -93.1500 345° North 410 472 32,000  Level Edmonton Center
03:31PM 61.9333 -93.2500 335° Northwest 410 472 32,000  Level Edmonton Center
03:32PM 62.0500 -93.3167 345° North 410 472 32,000  Level Edmonton Center
03:33PM 62.1667 -93.3833 345° North 410 472 32,000  Level Edmonton Center
03:34PM 62.2667 -93.5000 332° Northwest 420 483 32,000  Level Edmonton Center
03:35PM 62.4000 -93.5500 350° North 420 483 32,000  Level Edmonton Center
03:36PM 62.5000 -93.6333 339° North 420 483 32,000  Level Edmonton Center
03:37PM 62.6167 -93.7333 338° Northwest 420 483 32,000  Level Edmonton Center
03:38PM 62.7167 -93.8000 343° North 420 483 32,000  Level Edmonton Center
03:39PM 62.8333 -93.8833 342° North 420 483 32,000  Level Edmonton Center
03:40PM 62.9500 -93.9833 339° North 420 483 32,000  Level Edmonton Center
03:41PM 63.0500 -94.0500 343° North 420 483 32,000  Level Edmonton Center
03:42PM 63.1667 -94.1333 342° North 420 483 32,000  Level Edmonton Center
03:43PM 63.2667 -94.2333 336° Northwest 430 495 32,000  Level Edmonton Center
03:44PM 63.4000 -94.3167 344° North 420 483 32,000  Level Edmonton Center
03:45PM 63.5167 -94.4167 339° North 420 483 32,000  Level Edmonton Center
03:46PM 63.6167 -94.5000 340° North 420 483 32,000  Level Edmonton Center
03:47PM 63.7333 -94.5667 346° North 420 483 32,000  Level Edmonton Center
03:48PM 63.8333 -94.6833 333° Northwest 420 483 32,000  Level Edmonton Center
03:49PM 63.9667 -94.7667 345° North 420 483 32,000  Level Edmonton Center
03:50PM 64.0667 -94.8833 333° Northwest 420 483 32,000  Level Edmonton Center
03:51PM 64.1833 -94.9500 346° North 420 483 32,000  Level Edmonton Center
03:52PM 64.2833 -95.0333 340° North 420 483 32,000  Level Edmonton Center
03:53PM 64.4000 -95.1500 337° Northwest 420 483 32,000  Level Edmonton Center
03:54PM 64.5000 -95.2333 340° North 420 483 32,000  Level Edmonton Center
03:55PM 64.6167 -95.3500 337° Northwest 420 483 32,000  Level Edmonton Center
03:56PM 64.7500 -95.4333 345° North 420 483 32,000  Level Edmonton Center
03:57PM 64.8500 -95.5167 341° North 420 483 32,100 480 Climbing Edmonton Center
03:58PM 64.9667 -95.6333 337° Northwest 420 483 33,000 780 Climbing Edmonton Center
03:59PM 65.0667 -95.7167 341° North 430 495 33,700 480 Climbing Edmonton Center
04:00PM 65.2000 -95.8333 340° North 430 495 34,000 120 Climbing Edmonton Center
04:01PM 65.3000 -95.9333 337° Northwest 430 495 34,000  Level Edmonton Center
04:02PM 65.4167 -96.0500 337° Northwest 430 495 34,000  Level Edmonton Center
04:03PM 65.5333 -96.1333 344° North 430 495 34,000  Level Edmonton Center
04:04PM 65.6500 -96.2667 335° Northwest 430 495 34,000  Level Edmonton Center
04:05PM 65.7500 -96.3500 341° North 430 495 34,000  Level Edmonton Center
04:06PM 65.8833 -96.4833 338° Northwest 440 506 34,000  Level Edmonton Center
04:08PM 66.0997 -96.7103 337° Northwest  Level FlightAware Approximate
04:15PM 66.9329 -97.6077 338° Northwest  Level FlightAware Approximate
04:16PM 67.0526 -97.7341 338° Northwest  Level FlightAware Approximate
04:17PM 67.1722 -97.8617 338° Northwest  Level FlightAware Approximate
04:18PM 67.2917 -97.9906 337° Northwest  Level FlightAware Approximate
04:19PM 67.4111 -98.1208 337° Northwest  Level FlightAware Approximate
04:20PM 67.5304 -98.2524 337° Northwest  Level FlightAware Approximate
04:21PM 67.6496 -98.3852 337° Northwest  Level FlightAware Approximate
04:22PM 67.7687 -98.5194 337° Northwest  Level FlightAware Approximate
04:23PM 67.8877 -98.6550 337° Northwest  Level FlightAware Approximate
04:24PM 68.0066 -98.7919 337° Northwest  Level FlightAware Approximate
04:25PM 68.1253 -98.9303 337° Northwest  Level FlightAware Approximate
04:26PM 68.2440 -99.0701 336° Northwest  Level FlightAware Approximate
04:27PM 68.3625 -99.2114 336° Northwest  Level FlightAware Approximate
04:28PM 68.4809 -99.3541 336° Northwest  Level FlightAware Approximate
04:29PM 68.5991 -99.4984 336° Northwest  Level FlightAware Approximate
04:30PM 68.7173 -99.6442 336° Northwest  Level FlightAware Approximate
04:31PM 68.8353 -99.7915 336° Northwest  Level FlightAware Approximate
04:32PM 68.9532 -99.9404 336° Northwest  Level FlightAware Approximate
04:33PM 69.0643 -100.1236 326° Northwest  Level FlightAware Approximate
04:34PM 69.1708 -100.3304 325° Northwest  Level FlightAware Approximate
04:35PM 69.2770 -100.5392 325° Northwest  Level FlightAware Approximate
04:36PM 69.3830 -100.7501 325° Northwest  Level FlightAware Approximate
04:37PM 69.4887 -100.9630 325° Northwest  Level FlightAware Approximate
04:38PM 69.5942 -101.1781 325° Northwest  Level FlightAware Approximate
04:39PM 69.6994 -101.3953 324° Northwest  Level FlightAware Approximate
04:40PM 69.8044 -101.6146 324° Northwest  Level FlightAware Approximate
04:41PM 69.9090 -101.8362 324° Northwest  Level FlightAware Approximate
04:42PM 70.0134 -102.0599 324° Northwest  Level FlightAware Approximate
04:43PM 70.1175 -102.2859 324° Northwest  Level FlightAware Approximate
04:44PM 70.2213 -102.5142 323° Northwest  Level FlightAware Approximate
04:45PM 70.3248 -102.7448 323° Northwest  Level FlightAware Approximate
04:46PM 70.4280 -102.9778 323° Northwest  Level FlightAware Approximate
04:47PM 70.5309 -103.2131 323° Northwest  Level FlightAware Approximate
04:48PM 70.6335 -103.4508 323° Northwest  Level FlightAware Approximate
04:49PM 70.7358 -103.6909 322° Northwest  Level FlightAware Approximate
04:50PM 70.8378 -103.9335 322° Northwest  Level FlightAware Approximate
04:51PM 70.9395 -104.1786 322° Northwest  Level FlightAware Approximate
04:52PM 71.0408 -104.4262 322° Northwest  Level FlightAware Approximate
04:53PM 71.1418 -104.6764 321° Northwest  Level FlightAware Approximate
04:54PM 71.2425 -104.9292 321° Northwest  Level FlightAware Approximate
04:55PM 71.3428 -105.1845 321° Northwest  Level FlightAware Approximate
04:56PM 71.4428 -105.4426 321° Northwest  Level FlightAware Approximate
04:57PM 71.5424 -105.7033 320° Northwest  Level FlightAware Approximate
04:58PM 71.6416 -105.9668 320° Northwest  Level FlightAware Approximate
04:59PM 71.7405 -106.2330 320° Northwest  Level FlightAware Approximate
05:00PM 71.8390 -106.5021 320° Northwest  Level FlightAware Approximate
05:01PM 71.9372 -106.7739 319° Northwest  Level FlightAware Approximate
05:02PM 72.0345 -107.0502 318° Northwest  Level FlightAware Approximate
05:03PM 72.1306 -107.3324 318° Northwest  Level FlightAware Approximate
05:04PM 72.2263 -107.6175 318° Northwest  Level FlightAware Approximate
05:05PM 72.3216 -107.9056 318° Northwest  Level FlightAware Approximate
05:06PM 72.4165 -108.1967 317° Northwest  Level FlightAware Approximate
05:07PM 72.5109 -108.4909 317° Northwest  Level FlightAware Approximate
05:08PM 72.6060 -108.7840 318° Northwest  Level FlightAware Approximate
05:09PM 72.7024 -109.0743 318° Northwest  Level FlightAware Approximate
05:10PM 72.7983 -109.3678 318° Northwest  Level FlightAware Approximate
05:11PM 72.8938 -109.6645 318° Northwest  Level FlightAware Approximate
05:12PM 72.9888 -109.9644 317° Northwest  Level FlightAware Approximate
05:13PM 73.0743 -110.2974 311° West  Level FlightAware Approximate
05:14PM 73.1580 -110.6378 310° West  Level FlightAware Approximate
05:15PM 73.2411 -110.9814 310° West  Level FlightAware Approximate
05:16PM 73.3236 -111.3283 310° West  Level FlightAware Approximate
05:17PM 73.4056 -111.6786 309° West  Level FlightAware Approximate
05:18PM 73.4870 -112.0322 309° West  Level FlightAware Approximate
05:19PM 73.5677 -112.3892 309° West  Level FlightAware Approximate
05:20PM 73.6479 -112.7497 308° West  Level FlightAware Approximate
05:21PM 73.7274 -113.1136 308° West  Level FlightAware Approximate
05:22PM 73.8064 -113.4809 308° West  Level FlightAware Approximate
05:23PM 73.8847 -113.8518 307° West  Level FlightAware Approximate
05:24PM 73.9623 -114.2261 307° West  Level FlightAware Approximate
05:25PM 74.0393 -114.6040 307° West  Level FlightAware Approximate
05:26PM 74.1156 -114.9854 306° West  Level FlightAware Approximate
05:27PM 74.1912 -115.3704 306° West  Level FlightAware Approximate
05:28PM 74.2662 -115.7590 306° West  Level FlightAware Approximate
05:29PM 74.3404 -116.1512 305° West  Level FlightAware Approximate
05:30PM 74.4140 -116.5471 305° West  Level FlightAware Approximate
05:31PM 74.4868 -116.9465 304° West  Level FlightAware Approximate
05:32PM 74.5590 -117.3496 304° West  Level FlightAware Approximate
05:33PM 74.6303 -117.7564 304° West  Level FlightAware Approximate
05:34PM 74.7010 -118.1669 303° West  Level FlightAware Approximate
05:35PM 74.7709 -118.5811 303° West  Level FlightAware Approximate
05:36PM 74.8400 -118.9990 302° West  Level FlightAware Approximate
05:37PM 74.9083 -119.4206 302° West  Level FlightAware Approximate
05:38PM 74.9759 -119.8459 302° West  Level FlightAware Approximate
05:39PM 75.0578 -120.2298 314° West  Level FlightAware Approximate
05:40PM 75.1477 -120.5924 314° West  Level FlightAware Approximate
05:41PM 75.2371 -120.9593 314° West  Level FlightAware Approximate
05:42PM 75.3258 -121.3306 313° West  Level FlightAware Approximate
05:43PM 75.4140 -121.7062 313° West  Level FlightAware Approximate
05:44PM 75.5015 -122.0863 313° West  Level FlightAware Approximate
05:45PM 75.5884 -122.4710 312° West  Level FlightAware Approximate
05:46PM 75.6747 -122.8601 312° West  Level FlightAware Approximate
05:47PM 75.7604 -123.2539 312° West  Level FlightAware Approximate
05:48PM 75.8454 -123.6523 311° West  Level FlightAware Approximate
05:49PM 75.9297 -124.0554 311° West  Level FlightAware Approximate
05:50PM 76.0134 -124.4633 310° West  Level FlightAware Approximate
05:51PM 76.0964 -124.8760 310° West  Level FlightAware Approximate
05:52PM 76.1786 -125.2934 310° West  Level FlightAware Approximate
05:53PM 76.2602 -125.7158 309° West  Level FlightAware Approximate
05:54PM 76.3410 -126.1431 309° West  Level FlightAware Approximate
05:55PM 76.4211 -126.5754 308° West  Level FlightAware Approximate
05:56PM 76.5004 -127.0126 308° West  Level FlightAware Approximate
05:57PM 76.5790 -127.4549 308° West  Level FlightAware Approximate
05:58PM 76.6568 -127.9024 307° West  Level FlightAware Approximate
05:59PM 76.7338 -128.3549 307° West  Level FlightAware Approximate
06:00PM 76.8100 -128.8126 306° West  Level FlightAware Approximate
06:01PM 76.8854 -129.2755 306° West  Level FlightAware Approximate
06:02PM 76.9599 -129.7436 305° West  Level FlightAware Approximate
06:03PM 77.0309 -130.2247 302° West  Level FlightAware Approximate
06:04PM 77.0978 -130.7201 301° West  Level FlightAware Approximate
06:05PM 77.1637 -131.2205 301° West  Level FlightAware Approximate
06:06PM 77.2287 -131.7260 300° West  Level FlightAware Approximate
06:07PM 77.2927 -132.2365 300° West  Level FlightAware Approximate
06:08PM 77.3558 -132.7521 299° West  Level FlightAware Approximate
06:09PM 77.4178 -133.2728 299° West  Level FlightAware Approximate
06:10PM 77.4788 -133.7984 298° West  Level FlightAware Approximate
06:11PM 77.5388 -134.3291 298° West  Level FlightAware Approximate
06:12PM 77.5978 -134.8648 297° West  Level FlightAware Approximate
06:13PM 77.6556 -135.4055 297° West  Level FlightAware Approximate
06:14PM 77.7124 -135.9511 296° West  Level FlightAware Approximate
06:15PM 77.7682 -136.5017 296° West  Level FlightAware Approximate
06:16PM 77.8228 -137.0572 295° West  Level FlightAware Approximate
06:17PM 77.8763 -137.6176 295° West  Level FlightAware Approximate
06:18PM 77.9286 -138.1828 294° West  Level FlightAware Approximate
06:19PM 77.9798 -138.7528 294° West  Level FlightAware Approximate
06:20PM 78.0299 -139.3276 293° West  Level FlightAware Approximate
06:21PM 78.0787 -139.9071 292° West  Level FlightAware Approximate
06:22PM 78.1264 -140.4912 292° West  Level FlightAware Approximate
06:23PM 78.1733 -141.0791 292° West  Level FlightAware Approximate
06:24PM 78.2215 -141.6667 292° West  Level FlightAware Approximate
06:25PM 78.2686 -142.2591 292° West  Level FlightAware Approximate
06:26PM 78.3144 -142.8560 291° West  Level FlightAware Approximate
06:27PM 78.3589 -143.4576 290° West  Level FlightAware Approximate
06:28PM 78.4022 -144.0636 290° West  Level FlightAware Approximate
06:29PM 78.4443 -144.6741 289° West  Level FlightAware Approximate
06:30PM 78.4850 -145.2888 289° West  Level FlightAware Approximate
06:31PM 78.5244 -145.9078 288° West  Level FlightAware Approximate
06:31PM 78.1667 -141.0000 292° West 474 545 34,000  Level ETMS Enhanced Traffic Management System
06:31PM 78.1833 -141.0000 292° West 486 559 34,000  Level Anchorage Center
06:32PM 78.5626 -146.5310 287° West  Level FlightAware Approximate
06:33PM 78.5994 -147.1582 287° West  Level FlightAware Approximate
06:34PM 78.6348 -147.7893 286° West  Level FlightAware Approximate
06:35PM 78.6690 -148.4243 286° West  Level FlightAware Approximate
06:36PM 78.7017 -149.0629 285° West  Level FlightAware Approximate
06:37PM 78.6343 -147.8398 285° West 474 545 34,000  Level FlightAware Transoceanic
06:38PM 78.6805 -148.4950 285° West 486 559 34,000  Level FlightAware Transoceanic
06:39PM 78.7130 -149.1467 284° West 486 559 34,000  Level FlightAware Transoceanic
06:40PM 78.7441 -149.8021 283° West 486 559 34,000  Level FlightAware Transoceanic
06:41PM 78.7738 -150.4609 283° West 486 559 34,000  Level FlightAware Transoceanic
06:42PM 78.8020 -151.1232 282° West 486 559 34,000  Level FlightAware Transoceanic
06:43PM 78.8287 -151.7886 281° West 486 559 34,000  Level FlightAware Transoceanic
06:44PM 78.8540 -152.4571 281° West 486 559 34,000  Level FlightAware Transoceanic
06:45PM 78.8778 -153.1285 280° West 486 559 34,000  Level FlightAware Transoceanic
06:46PM 78.9001 -153.8027 279° West 486 559 34,000  Level FlightAware Transoceanic
06:47PM 78.9208 -154.4794 279° West 486 559 34,000  Level FlightAware Transoceanic
06:48PM 78.9401 -155.1586 278° West 486 559 34,000  Level FlightAware Transoceanic
06:49PM 78.9578 -155.8400 277° West 486 559 34,000  Level FlightAware Transoceanic
06:50PM 78.9741 -156.5235 277° West 486 559 34,000  Level FlightAware Transoceanic
06:51PM 78.9887 -157.2089 276° West 486 559 34,000  Level FlightAware Transoceanic
06:52PM 79.0019 -157.8960 275° West 486 559 34,000  Level FlightAware Transoceanic
06:53PM 79.0135 -158.5846 275° West 486 559 34,000  Level FlightAware Transoceanic
06:54PM 79.0235 -159.2746 274° West 486 559 34,000  Level FlightAware Transoceanic
06:55PM 79.0320 -159.9657 273° West 486 559 34,000  Level FlightAware Transoceanic
06:56PM 79.0389 -160.6578 273° West 486 559 34,000  Level FlightAware Transoceanic
06:57PM 79.0443 -161.3506 272° West 486 559 34,000  Level FlightAware Transoceanic
06:58PM 79.0481 -162.0440 271° West 486 559 34,000  Level FlightAware Transoceanic
06:59PM 79.0503 -162.7378 271° West 486 559 34,000  Level FlightAware Transoceanic
07:00PM 79.0510 -163.4318 270° West 486 559 34,000  Level FlightAware Transoceanic
07:01PM 79.0501 -164.1257 269° West 486 559 34,000  Level FlightAware Transoceanic
07:02PM 79.0476 -164.8195 269° West 486 559 34,000  Level FlightAware Transoceanic
07:03PM 79.0436 -165.5128 268° West 486 559 34,000  Level FlightAware Transoceanic
07:04PM 79.0380 -166.2056 267° West 486 559 34,000  Level FlightAware Transoceanic
07:05PM 79.0308 -166.8975 267° West 486 559 34,000  Level FlightAware Transoceanic
07:06PM 79.0221 -167.5885 266° West 486 559 34,000  Level FlightAware Transoceanic
07:07PM 79.0118 -168.2783 265° West 486 559 34,000 -120 Level FlightAware Transoceanic
07:08PM 79.0002 -168.9547 265° West  Level FlightAware Approximate
07:09PM 78.9871 -169.6295 265° West  Level FlightAware Approximate
07:10PM 78.9663 -169.5961 255° West  Level FlightAware Approximate
07:11PM 78.9301 -170.2448 254° West  Level FlightAware Approximate
07:12PM 78.8925 -170.8891 253° West  Level FlightAware Approximate
07:13PM 78.8535 -171.5291 253° West  Level FlightAware Approximate
07:14PM 78.8147 -172.1671 253° West  Level FlightAware Approximate
07:15PM 78.7762 -172.8035 253° West  Level FlightAware Approximate
07:16PM 78.7363 -173.4354 252° West  Level FlightAware Approximate
07:17PM 78.6951 -174.0629 252° West  Level FlightAware Approximate
07:18PM 78.6525 -174.6858 251° West  Level FlightAware Approximate
07:19PM 78.6087 -175.3040 251° West  Level FlightAware Approximate
07:20PM 78.5636 -175.9175 250° West  Level FlightAware Approximate
07:21PM 78.5173 -176.5262 249° West  Level FlightAware Approximate
07:22PM 78.4696 -177.1299 249° West  Level FlightAware Approximate
07:23PM 78.4208 -177.7288 248° West  Level FlightAware Approximate
07:24PM 78.3707 -178.3226 248° West  Level FlightAware Approximate
07:25PM 78.3194 -178.9113 247° West  Level FlightAware Approximate
07:26PM 78.2670 -179.4948 246° West  Level FlightAware Approximate
07:27PM 78.2133 179.9268 246° West  Level FlightAware Approximate
07:28PM 78.1585 179.3536 245° Southwest  Level FlightAware Approximate
07:29PM 78.1026 178.7857 245° Southwest  Level FlightAware Approximate
07:30PM 78.0455 178.2231 244° Southwest  Level FlightAware Approximate
07:31PM 77.9873 177.6658 244° Southwest  Level FlightAware Approximate
07:32PM 77.9281 177.1138 243° Southwest  Level FlightAware Approximate
07:33PM 77.8677 176.5672 242° Southwest  Level FlightAware Approximate
07:34PM 77.8063 176.0260 242° Southwest  Level FlightAware Approximate
07:35PM 77.7439 175.4902 241° Southwest  Level FlightAware Approximate
07:36PM 77.6804 174.9597 241° Southwest  Level FlightAware Approximate
07:37PM 77.6159 174.4347 240° Southwest  Level FlightAware Approximate
07:38PM 77.5504 173.9151 240° Southwest  Level FlightAware Approximate
07:39PM 77.4839 173.4008 239° Southwest  Level FlightAware Approximate
07:40PM 77.4165 172.8920 239° Southwest  Level FlightAware Approximate
07:41PM 77.3481 172.3885 238° Southwest  Level FlightAware Approximate
07:42PM 77.2788 171.8903 238° Southwest  Level FlightAware Approximate
07:43PM 77.2085 171.3976 237° Southwest  Level FlightAware Approximate
07:44PM 77.1374 170.9101 237° Southwest  Level FlightAware Approximate
07:45PM 77.0654 170.4279 236° Southwest  Level FlightAware Approximate
07:46PM 76.9923 169.9514 235° Southwest  Level FlightAware Approximate
07:47PM 76.9175 169.4830 235° Southwest  Level FlightAware Approximate
07:48PM 76.8419 169.0199 234° Southwest  Level FlightAware Approximate
07:49PM 76.7654 168.5620 234° Southwest  Level FlightAware Approximate
07:50PM 76.6882 168.1093 234° Southwest  Level FlightAware Approximate
07:51PM 76.6101 167.6618 233° Southwest  Level FlightAware Approximate
07:52PM 76.5313 167.2194 233° Southwest  Level FlightAware Approximate
07:53PM 76.4517 166.7820 232° Southwest  Level FlightAware Approximate
07:54PM 76.3713 166.3497 232° Southwest  Level FlightAware Approximate
07:55PM 76.2902 165.9224 231° Southwest  Level FlightAware Approximate
07:56PM 76.2084 165.5001 231° Southwest  Level FlightAware Approximate
07:57PM 76.1258 165.0826 231° Southwest  Level FlightAware Approximate
07:58PM 76.0426 164.6700 230° Southwest  Level FlightAware Approximate
07:59PM 75.9587 164.2623 230° Southwest  Level FlightAware Approximate
08:00PM 75.8741 163.8593 229° Southwest  Level FlightAware Approximate
08:01PM 75.7888 163.4610 229° Southwest  Level FlightAware Approximate
08:02PM 75.7029 163.0673 229° Southwest  Level FlightAware Approximate
08:03PM 75.6164 162.6783 228° Southwest  Level FlightAware Approximate
08:04PM 75.5292 162.2939 228° Southwest  Level FlightAware Approximate
08:05PM 75.4414 161.9140 228° Southwest  Level FlightAware Approximate
08:06PM 75.3530 161.5386 227° Southwest  Level FlightAware Approximate
08:07PM 75.2640 161.1676 227° Southwest  Level FlightAware Approximate
08:08PM 75.1744 160.8009 226° Southwest  Level FlightAware Approximate
08:09PM 75.0843 160.4386 226° Southwest  Level FlightAware Approximate
08:10PM 74.9936 160.0806 226° Southwest  Level FlightAware Approximate
08:11PM 74.9023 159.7267 225° Southwest  Level FlightAware Approximate
08:12PM 74.8105 159.3771 225° Southwest  Level FlightAware Approximate
08:13PM 74.7181 159.0315 225° Southwest  Level FlightAware Approximate
08:14PM 74.6253 158.6900 224° Southwest  Level FlightAware Approximate
08:15PM 74.5319 158.3526 224° Southwest  Level FlightAware Approximate
08:16PM 74.4380 158.0191 224° Southwest  Level FlightAware Approximate
08:17PM 74.3436 157.6895 223° Southwest  Level FlightAware Approximate
08:18PM 74.2487 157.3637 223° Southwest  Level FlightAware Approximate
08:19PM 74.1534 157.0418 223° Southwest  Level FlightAware Approximate
08:20PM 74.0576 156.7236 222° Southwest  Level FlightAware Approximate
08:21PM 73.9613 156.4092 222° Southwest  Level FlightAware Approximate
08:22PM 73.8646 156.0984 222° Southwest  Level FlightAware Approximate
08:23PM 73.7674 155.7912 222° Southwest  Level FlightAware Approximate
08:24PM 73.6698 155.4876 221° Southwest  Level FlightAware Approximate
08:25PM 73.5717 155.1875 221° Southwest  Level FlightAware Approximate
08:26PM 73.4733 154.8909 221° Southwest  Level FlightAware Approximate
08:27PM 73.3744 154.5977 220° Southwest  Level FlightAware Approximate
08:28PM 73.2751 154.3079 220° Southwest  Level FlightAware Approximate
08:29PM 73.1754 154.0214 220° Southwest  Level FlightAware Approximate
08:30PM 73.0753 153.7382 220° Southwest  Level FlightAware Approximate
08:31PM 72.9749 153.4583 219° Southwest  Level FlightAware Approximate
08:32PM 72.8740 153.1815 219° Southwest  Level FlightAware Approximate
08:33PM 72.7728 152.9079 219° Southwest  Level FlightAware Approximate
08:34PM 72.6712 152.6373 218° Southwest  Level FlightAware Approximate
08:35PM 72.5699 152.3676 219° Southwest  Level FlightAware Approximate
08:36PM 72.4694 152.0955 219° Southwest  Level FlightAware Approximate
08:37PM 72.3686 151.8264 219° Southwest  Level FlightAware Approximate
08:38PM 72.2674 151.5602 219° Southwest  Level FlightAware Approximate
08:39PM 72.1658 151.2970 218° Southwest  Level FlightAware Approximate
08:40PM 72.0639 151.0367 218° Southwest  Level FlightAware Approximate
08:41PM 71.9617 150.7793 218° Southwest  Level FlightAware Approximate
08:42PM 71.8572 150.5328 216° Southwest  Level FlightAware Approximate
08:43PM 71.7522 150.2901 216° Southwest  Level FlightAware Approximate
08:44PM 71.6469 150.0502 216° Southwest  Level FlightAware Approximate
08:45PM 71.5412 149.8128 215° Southwest  Level FlightAware Approximate
08:46PM 71.4353 149.5781 215° Southwest  Level FlightAware Approximate
08:47PM 71.3291 149.3460 215° Southwest  Level FlightAware Approximate
08:48PM 71.2226 149.1164 215° Southwest  Level FlightAware Approximate
08:49PM 71.1158 148.8893 215° Southwest  Level FlightAware Approximate
08:50PM 71.0088 148.6646 214° Southwest  Level FlightAware Approximate
08:51PM 70.9015 148.4424 214° Southwest  Level FlightAware Approximate
08:52PM 70.7939 148.2226 214° Southwest  Level FlightAware Approximate
08:53PM 70.6861 148.0051 214° Southwest  Level FlightAware Approximate
08:54PM 70.5811 147.7775 220° Southwest  Level FlightAware Approximate
08:55PM 70.4813 147.5297 220° Southwest  Level FlightAware Approximate
08:56PM 70.3812 147.2844 219° Southwest  Level FlightAware Approximate
08:57PM 70.2807 147.0415 219° Southwest  Level FlightAware Approximate
08:58PM 70.1799 146.8010 219° Southwest  Level FlightAware Approximate
08:59PM 70.0788 146.5628 219° Southwest  Level FlightAware Approximate
09:00PM 69.9774 146.3269 219° Southwest  Level FlightAware Approximate
09:01PM 69.8757 146.0933 218° Southwest  Level FlightAware Approximate
09:02PM 69.7737 145.8620 218° Southwest  Level FlightAware Approximate
09:03PM 69.6714 145.6329 218° Southwest  Level FlightAware Approximate
09:04PM 69.5688 145.4060 218° Southwest  Level FlightAware Approximate
09:05PM 69.4659 145.1812 217° Southwest  Level FlightAware Approximate
09:06PM 69.3627 144.9586 217° Southwest  Level FlightAware Approximate
09:07PM 69.2592 144.7382 217° Southwest  Level FlightAware Approximate
09:08PM 69.1555 144.5198 217° Southwest  Level FlightAware Approximate
09:09PM 69.0515 144.3035 217° Southwest  Level FlightAware Approximate
09:10PM 68.9472 144.0892 216° Southwest  Level FlightAware Approximate
09:11PM 68.8426 143.8770 216° Southwest  Level FlightAware Approximate
09:12PM 68.7378 143.6668 216° Southwest  Level FlightAware Approximate
09:13PM 68.6327 143.4585 216° Southwest  Level FlightAware Approximate
09:14PM 68.5274 143.2522 216° Southwest  Level FlightAware Approximate
09:15PM 68.4218 143.0478 215° Southwest  Level FlightAware Approximate
09:16PM 68.3159 142.8452 215° Southwest  Level FlightAware Approximate
09:17PM 68.2098 142.6449 215° Southwest  Level FlightAware Approximate
09:18PM 68.1034 142.4464 215° Southwest  Level FlightAware Approximate
09:19PM 67.9967 142.2498 215° Southwest  Level FlightAware Approximate
09:20PM 67.8899 142.0551 214° Southwest  Level FlightAware Approximate
09:21PM 67.7828 141.8620 214° Southwest  Level FlightAware Approximate
09:22PM 67.6754 141.6708 214° Southwest  Level FlightAware Approximate
09:23PM 67.5679 141.4813 214° Southwest  Level FlightAware Approximate
09:24PM 67.4604 141.2921 214° Southwest  Level FlightAware Approximate
09:25PM 67.3529 141.1044 214° Southwest  Level FlightAware Approximate
09:26PM 67.2451 140.9183 214° Southwest  Level FlightAware Approximate
09:27PM 67.1371 140.7339 214° Southwest  Level FlightAware Approximate
09:28PM 67.0289 140.5512 213° Southwest  Level FlightAware Approximate
09:29PM 66.9205 140.3701 213° Southwest  Level FlightAware Approximate
09:30PM 66.8118 140.1906 213° Southwest  Level FlightAware Approximate
09:31PM 66.7030 140.0126 213° Southwest  Level FlightAware Approximate
09:32PM 66.5940 139.8362 213° Southwest  Level FlightAware Approximate
09:33PM 66.4848 139.6614 213° Southwest  Level FlightAware Approximate
09:34PM 66.3754 139.4881 212° Southwest  Level FlightAware Approximate
09:35PM 66.2658 139.3163 212° Southwest  Level FlightAware Approximate
09:36PM 66.1560 139.1460 212° Southwest  Level FlightAware Approximate
09:37PM 66.0460 138.9772 212° Southwest  Level FlightAware Approximate
09:38PM 65.9358 138.8098 212° Southwest  Level FlightAware Approximate
09:39PM 65.8255 138.6439 212° Southwest  Level FlightAware Approximate
09:40PM 65.7150 138.4794 211° Southwest  Level FlightAware Approximate
09:41PM 65.6043 138.3162 211° Southwest  Level FlightAware Approximate
09:42PM 65.4934 138.1545 211° Southwest  Level FlightAware Approximate
09:43PM 65.3824 137.9941 211° Southwest  Level FlightAware Approximate
09:44PM 65.2711 137.8353 211° Southwest  Level FlightAware Approximate
09:45PM 65.1596 137.6780 211° Southwest  Level FlightAware Approximate
09:46PM 65.0480 137.5220 211° Southwest  Level FlightAware Approximate
09:47PM 64.9362 137.3673 210° Southwest  Level FlightAware Approximate
09:48PM 64.8242 137.2140 210° Southwest  Level FlightAware Approximate
09:49PM 64.7121 137.0618 210° Southwest  Level FlightAware Approximate
09:50PM 64.5999 136.9110 210° Southwest  Level FlightAware Approximate
09:51PM 64.4873 136.7622 210° Southwest  Level FlightAware Approximate
09:52PM 64.3744 136.6150 209° Southwest  Level FlightAware Approximate
09:53PM 64.2614 136.4690 209° Southwest  Level FlightAware Approximate
09:54PM 64.1482 136.3242 209° Southwest  Level FlightAware Approximate
09:55PM 64.0349 136.1806 209° Southwest  Level FlightAware Approximate
09:56PM 63.9215 136.0381 209° Southwest  Level FlightAware Approximate
09:57PM 63.8079 135.8968 209° Southwest  Level FlightAware Approximate
09:58PM 63.6942 135.7566 209° Southwest  Level FlightAware Approximate
09:59PM 63.5804 135.6176 209° Southwest  Level FlightAware Approximate
10:00PM 63.4664 135.4796 208° Southwest  Level FlightAware Approximate
10:01PM 63.3523 135.3428 208° Southwest  Level FlightAware Approximate
10:02PM 63.2381 135.2070 208° Southwest  Level FlightAware Approximate
10:03PM 63.1237 135.0723 208° Southwest  Level FlightAware Approximate
10:04PM 63.0092 134.9386 208° Southwest  Level FlightAware Approximate
10:05PM 62.8946 134.8060 208° Southwest  Level FlightAware Approximate
10:06PM 62.7798 134.6745 208° Southwest  Level FlightAware Approximate
10:07PM 62.6650 134.5439 208° Southwest  Level FlightAware Approximate
10:08PM 62.5500 134.4144 207° Southwest  Level FlightAware Approximate
10:09PM 62.4349 134.2858 207° Southwest  Level FlightAware Approximate
10:10PM 62.3197 134.1583 207° Southwest  Level FlightAware Approximate
10:11PM 62.2045 134.0309 207° Southwest  Level FlightAware Approximate
10:12PM 62.0895 133.9036 207° Southwest  Level FlightAware Approximate
10:13PM 61.9743 133.7774 207° Southwest  Level FlightAware Approximate
10:14PM 61.8590 133.6521 207° Southwest  Level FlightAware Approximate
10:15PM 61.7436 133.5277 207° Southwest  Level FlightAware Approximate
10:16PM 61.6281 133.4043 207° Southwest  Level FlightAware Approximate
10:17PM 61.5124 133.2817 207° Southwest  Level FlightAware Approximate
10:18PM 61.3967 133.1601 207° Southwest  Level FlightAware Approximate
10:19PM 61.2808 133.0394 207° Southwest  Level FlightAware Approximate
10:20PM 61.1649 132.9196 207° Southwest  Level FlightAware Approximate
10:21PM 61.0488 132.8006 206° Southwest  Level FlightAware Approximate
10:22PM 60.9327 132.6825 206° Southwest  Level FlightAware Approximate
10:23PM 60.8164 132.5653 206° Southwest  Level FlightAware Approximate
10:24PM 60.7000 132.4489 206° Southwest  Level FlightAware Approximate
10:25PM 60.5835 132.3334 206° Southwest  Level FlightAware Approximate
10:26PM 60.4670 132.2187 206° Southwest  Level FlightAware Approximate
10:27PM 60.3503 132.1048 206° Southwest  Level FlightAware Approximate
10:28PM 60.2336 131.9917 206° Southwest  Level FlightAware Approximate
10:29PM 60.1167 131.8795 206° Southwest  Level FlightAware Approximate
10:30PM 59.9997 131.7680 205° Southwest  Level FlightAware Approximate
10:31PM 59.8827 131.6573 205° Southwest  Level FlightAware Approximate
10:32PM 59.7656 131.5474 205° Southwest  Level FlightAware Approximate
10:33PM 59.6483 131.4382 205° Southwest  Level FlightAware Approximate
10:34PM 59.5310 131.3299 205° Southwest  Level FlightAware Approximate
10:35PM 59.4131 131.2246 204° Southwest  Level FlightAware Approximate
10:36PM 59.2949 131.1205 204° Southwest  Level FlightAware Approximate
10:37PM 59.1767 131.0170 204° Southwest  Level FlightAware Approximate
10:38PM 59.0584 130.9143 204° Southwest  Level FlightAware Approximate
10:39PM 58.9400 130.8122 204° Southwest  Level FlightAware Approximate
10:40PM 58.8216 130.7109 204° Southwest  Level FlightAware Approximate
10:41PM 58.7052 130.6022 209° Southwest  Level FlightAware Approximate
10:42PM 58.5918 130.4818 209° Southwest  Level FlightAware Approximate
10:43PM 58.4783 130.3622 209° Southwest  Level FlightAware Approximate
10:44PM 58.3647 130.2434 209° Southwest  Level FlightAware Approximate
10:45PM 58.2510 130.1254 209° Southwest  Level FlightAware Approximate
10:46PM 58.1372 130.0081 209° Southwest  Level FlightAware Approximate
10:47PM 58.0233 129.8915 208° Southwest  Level FlightAware Approximate
10:48PM 57.9093 129.7757 208° Southwest  Level FlightAware Approximate
10:49PM 57.7952 129.6607 208° Southwest  Level FlightAware Approximate
10:50PM 57.6809 129.5463 208° Southwest  Level FlightAware Approximate
10:51PM 57.5666 129.4327 208° Southwest  Level FlightAware Approximate
10:52PM 57.4523 129.3192 208° Southwest  Level FlightAware Approximate
10:53PM 57.3381 129.2060 208° Southwest  Level FlightAware Approximate
10:54PM 57.2238 129.0935 208° Southwest  Level FlightAware Approximate
10:55PM 57.1093 128.9816 208° Southwest  Level FlightAware Approximate
10:56PM 56.9948 128.8705 208° Southwest  Level FlightAware Approximate
10:57PM 56.8801 128.7601 208° Southwest  Level FlightAware Approximate
10:58PM 56.7653 128.6505 207° Southwest  Level FlightAware Approximate
10:59PM 56.6503 128.5421 207° Southwest  Level FlightAware Approximate
11:00PM 56.5351 128.4344 207° Southwest  Level FlightAware Approximate
11:01PM 56.4199 128.3273 207° Southwest  Level FlightAware Approximate
11:02PM 56.3046 128.2209 207° Southwest  Level FlightAware Approximate
11:03PM 56.1893 128.1148 207° Southwest  Level FlightAware Approximate
11:04PM 56.0739 128.0093 207° Southwest  Level FlightAware Approximate
11:05PM 55.9584 127.9044 207° Southwest  Level FlightAware Approximate
11:06PM 55.8429 127.8001 207° Southwest  Level FlightAware Approximate
11:07PM 55.7272 127.6963 207° Southwest  Level FlightAware Approximate
11:08PM 55.6115 127.5931 207° Southwest  Level FlightAware Approximate
11:09PM 55.4957 127.4906 207° Southwest  Level FlightAware Approximate
11:10PM 55.3798 127.3886 207° Southwest  Level FlightAware Approximate
11:11PM 55.2578 127.3295 182° South  Level FlightAware Approximate
11:12PM 55.1283 127.3211 182° South  Level FlightAware Approximate
11:13PM 54.9989 127.3127 182° South  Level FlightAware Approximate
11:14PM 54.8695 127.3044 182° South  Level FlightAware Approximate
11:15PM 54.7401 127.2953 183° South  Level FlightAware Approximate
11:16PM 54.6107 127.2851 183° South  Level FlightAware Approximate
11:17PM 54.4813 127.2750 183° South  Level FlightAware Approximate
11:18PM 54.3520 127.2650 183° South  Level FlightAware Approximate
11:19PM 54.2226 127.2550 183° South  Level FlightAware Approximate
11:20PM 54.0932 127.2451 183° South  Level FlightAware Approximate
11:21PM 53.9638 127.2353 183° South  Level FlightAware Approximate
11:22PM 53.8344 127.2255 183° South  Level FlightAware Approximate
11:23PM 53.7052 127.2197 171° South  Level FlightAware Approximate
11:24PM 53.5773 127.2540 171° South  Level FlightAware Approximate
11:25PM 53.4493 127.2879 171° South  Level FlightAware Approximate
11:26PM 53.3214 127.3217 171° South  Level FlightAware Approximate
11:27PM 53.1935 127.3553 171° South  Level FlightAware Approximate
11:28PM 53.0655 127.3887 171° South  Level FlightAware Approximate
11:29PM 52.9375 127.4219 171° South  Level FlightAware Approximate
11:30PM 52.8096 127.4549 171° South  Level FlightAware Approximate
11:31PM 52.6816 127.4877 171° South  Level FlightAware Approximate
11:32PM 52.5537 127.5212 171° South  Level FlightAware Approximate
11:33PM 52.4258 127.5551 171° South  Level FlightAware Approximate
11:34PM 52.2980 127.5889 171° South  Level FlightAware Approximate
11:35PM 52.1701 127.6224 171° South  Level FlightAware Approximate
11:36PM 52.0422 127.6557 171° South  Level FlightAware Approximate
11:37PM 51.9132 127.6667 180° South  Level FlightAware Approximate
11:38PM 51.7837 127.6667 180° South  Level FlightAware Approximate
11:39PM 51.6542 127.6667 180° South  Level FlightAware Approximate
11:40PM 51.5247 127.6667 180° South  Level FlightAware Approximate
11:41PM 51.3952 127.6667 180° South  Level FlightAware Approximate
11:42PM 51.2664 127.6529 190° South  Level FlightAware Approximate
11:43PM 51.1387 127.6182 190° South  Level FlightAware Approximate
11:44PM 51.0110 127.5837 190° South  Level FlightAware Approximate
11:45PM 50.8834 127.5493 190° South  Level FlightAware Approximate
11:46PM 50.7556 127.5152 190° South  Level FlightAware Approximate
11:47PM 50.6279 127.4812 190° South  Level FlightAware Approximate
11:48PM 50.5002 127.4474 190° South  Level FlightAware Approximate
11:49PM 50.3728 127.4114 198° South  Level FlightAware Approximate
11:50PM 50.2496 127.3493 198° South  Level FlightAware Approximate
11:51PM 50.1265 127.2863 198° South  Level FlightAware Approximate
11:52PM 50.0034 127.2236 198° South  Level FlightAware Approximate
11:53PM 49.8803 127.1612 198° South  Level FlightAware Approximate
11:54PM 49.7571 127.0991 198° South  Level FlightAware Approximate
11:55PM 49.6339 127.0374 198° South  Level FlightAware Approximate
11:56PM 49.5107 126.9759 198° South  Level FlightAware Approximate
11:57PM 49.3874 126.9148 198° South  Level FlightAware Approximate
11:58PM 49.2641 126.8540 198° South  Level FlightAware Approximate
11:59PM 49.1408 126.7934 198° South  Level FlightAware Approximate
12:00AM 49.0174 126.7332 198° South  Level FlightAware Approximate
12:01AM 48.8940 126.6733 198° South  Level FlightAware Approximate
12:02AM 48.7706 126.6137 198° South  Level FlightAware Approximate
12:03AM 48.6472 126.5543 198° South  Level FlightAware Approximate
12:04AM 48.5237 126.4953 198° South  Level FlightAware Approximate
12:05AM 48.4002 126.4365 198° South  Level FlightAware Approximate
12:06AM 48.2766 126.3780 197° South  Level FlightAware Approximate
12:07AM 48.1531 126.3198 197° South  Level FlightAware Approximate
12:08AM 48.0295 126.2619 197° South  Level FlightAware Approximate
12:09AM 47.9058 126.2043 197° South  Level FlightAware Approximate
12:10AM 47.7822 126.1469 197° South  Level FlightAware Approximate
12:11AM 47.6584 126.0904 197° South  Level FlightAware Approximate
12:12AM 47.5344 126.0346 197° South  Level FlightAware Approximate
12:13AM 47.4105 125.9792 197° South  Level FlightAware Approximate
12:14AM 47.2865 125.9240 197° South  Level FlightAware Approximate
12:15AM 47.1625 125.8690 197° South  Level FlightAware Approximate
12:16AM 47.0384 125.8143 197° South  Level FlightAware Approximate
12:17AM 46.9143 125.7599 197° South  Level FlightAware Approximate
12:18AM 46.7902 125.7057 197° South  Level FlightAware Approximate
12:19AM 46.6661 125.6518 197° South  Level FlightAware Approximate
12:20AM 46.5420 125.5981 197° South  Level FlightAware Approximate
12:21AM 46.4178 125.5446 197° South  Level FlightAware Approximate
12:22AM 46.2936 125.4914 196° South  Level FlightAware Approximate
12:23AM 46.1694 125.4385 196° South  Level FlightAware Approximate
12:24AM 46.0451 125.3857 196° South  Level FlightAware Approximate
12:25AM 45.9210 125.3327 197° South  Level FlightAware Approximate
12:26AM 45.7969 125.2795 197° South  Level FlightAware Approximate
12:27AM 45.6727 125.2265 197° South  Level FlightAware Approximate
12:28AM 45.5486 125.1738 197° South  Level FlightAware Approximate
12:29AM 45.4244 125.1213 197° South  Level FlightAware Approximate
12:30AM 45.3002 125.0691 196° South  Level FlightAware Approximate
12:31AM 45.1760 125.0170 196° South  Level FlightAware Approximate
12:32AM 45.0518 124.9652 196° South  Level FlightAware Approximate
12:33AM 44.9275 124.9137 196° South  Level FlightAware Approximate
12:34AM 44.8032 124.8623 196° South  Level FlightAware Approximate
12:35AM 44.6789 124.8112 196° South  Level FlightAware Approximate
12:36AM 44.5545 124.7603 196° South  Level FlightAware Approximate
12:37AM 44.4302 124.7096 196° South  Level FlightAware Approximate
12:38AM 44.3058 124.6591 196° South  Level FlightAware Approximate
12:39AM 44.1813 124.6093 196° South  Level FlightAware Approximate
12:40AM 44.0568 124.5597 196° South  Level FlightAware Approximate
12:41AM 43.9322 124.5104 196° South  Level FlightAware Approximate
12:42AM 43.8076 124.4613 196° South  Level FlightAware Approximate
12:43AM 43.6830 124.4124 196° South  Level FlightAware Approximate
12:44AM 43.5584 124.3637 196° South  Level FlightAware Approximate
12:45AM 43.4338 124.3152 196° South  Level FlightAware Approximate
12:46AM 43.3091 124.2669 196° South  Level FlightAware Approximate
12:47AM 43.1844 124.2187 196° South  Level FlightAware Approximate
12:48AM 43.0597 124.1708 196° South  Level FlightAware Approximate
12:49AM 42.9350 124.1231 196° South  Level FlightAware Approximate
12:50AM 42.8103 124.0756 196° South  Level FlightAware Approximate
12:51AM 42.6855 124.0282 196° South  Level FlightAware Approximate
12:52AM 42.5607 123.9811 196° South  Level FlightAware Approximate
12:53AM 42.4360 123.9338 196° South  Level FlightAware Approximate
12:54AM 42.3112 123.8867 196° South  Level FlightAware Approximate
12:55AM 42.1865 123.8398 196° South  Level FlightAware Approximate
12:56AM 42.0617 123.7930 196° South  Level FlightAware Approximate
12:57AM 41.9369 123.7465 196° South  Level FlightAware Approximate
12:58AM 41.8121 123.7001 195° South  Level FlightAware Approximate
12:59AM 41.6872 123.6539 195° South  Level FlightAware Approximate
01:00AM 41.5624 123.6079 195° South  Level FlightAware Approximate
01:01AM 41.4375 123.5621 195° South  Level FlightAware Approximate
01:02AM 41.3126 123.5164 195° South  Level FlightAware Approximate
01:03AM 41.1877 123.4709 195° South  Level FlightAware Approximate
01:04AM 41.0627 123.4256 195° South  Level FlightAware Approximate
01:05AM 40.9378 123.3805 195° South  Level FlightAware Approximate
01:06AM 40.8128 123.3355 195° South  Level FlightAware Approximate
01:07AM 40.6878 123.2907 195° South  Level FlightAware Approximate
01:08AM 40.5628 123.2461 195° South  Level FlightAware Approximate
01:09AM 40.4378 123.2016 195° South  Level FlightAware Approximate
01:10AM 40.3128 123.1573 195° South  Level FlightAware Approximate
01:11AM 40.1877 123.1132 195° South  Level FlightAware Approximate
01:12AM 40.0626 123.0692 195° South  Level FlightAware Approximate
01:13AM 39.9375 123.0254 195° South  Level FlightAware Approximate
01:14AM 39.8124 122.9818 195° South  Level FlightAware Approximate
01:15AM 39.6873 122.9383 195° South  Level FlightAware Approximate
01:16AM 39.5622 122.8949 195° South  Level FlightAware Approximate
01:17AM 39.4370 122.8518 195° South  Level FlightAware Approximate
01:18AM 39.3119 122.8087 195° South  Level FlightAware Approximate
01:19AM 39.1867 122.7659 195° South  Level FlightAware Approximate
01:20AM 39.0615 122.7231 195° South  Level FlightAware Approximate
01:21AM 38.9363 122.6806 195° South  Level FlightAware Approximate
01:22AM 38.8110 122.6382 195° South  Level FlightAware Approximate
01:23AM 38.6858 122.5959 195° South  Level FlightAware Approximate
01:24AM 38.5605 122.5538 195° South  Level FlightAware Approximate
01:25AM 38.4352 122.5118 195° South  Level FlightAware Approximate
01:26AM 38.3100 122.4700 195° South  Level FlightAware Approximate
01:27AM 38.2025 122.5111 135° Southeast  Level FlightAware Approximate
01:28AM 38.1112 122.6280 135° Southeast  Level FlightAware Approximate
01:29AM 38.0199 122.7446 135° Southeast  Level FlightAware Approximate
01:30AM 37.9284 122.8609 135° Southeast  Level FlightAware Approximate
01:31AM 37.8368 122.9769 135° Southeast  Level FlightAware Approximate
01:32AM 37.7451 123.0927 135° Southeast  Level FlightAware Approximate
01:33AM 37.6533 123.2081 135° Southeast  Level FlightAware Approximate
01:34AM 37.5622 123.3242 127° Southeast  Level FlightAware Approximate
01:35AM 37.4840 123.4543 127° Southeast  Level FlightAware Approximate
01:36AM 37.4056 123.5842 127° Southeast  Level FlightAware Approximate
01:37AM 37.3271 123.7138 127° Southeast  Level FlightAware Approximate
01:38AM 37.2485 123.8432 127° Southeast  Level FlightAware Approximate
01:39AM 37.1715 123.9738 122° Southeast  Level FlightAware Approximate
01:40AM 37.1833 124.1329 90° East  Level FlightAware Approximate
01:41AM 37.1982 124.2937 79° East  Level FlightAware Approximate
01:42AM 37.2234 124.4532 79° East  Level FlightAware Approximate
01:43AM 37.2503 124.6123 77° East  Level FlightAware Approximate
01:44AM 37.2783 124.7712 77° East  Level FlightAware Approximate
01:45AM 37.3009 124.9314 80° East  Level FlightAware Approximate
01:46AM 37.3220 125.0921 81° East  Level FlightAware Approximate
01:47AM 37.3422 125.2530 81° East  Level FlightAware Approximate
01:48AM 37.3622 125.4139 81° East  Level FlightAware Approximate
01:49AM 37.3772 125.5758 84° East  Level FlightAware Approximate
01:50AM 37.3995 125.7360 77° East  Level FlightAware Approximate
01:51AM 37.4292 125.8947 77° East  Level FlightAware Approximate
01:52AM 37.4415 126.0565 82° East  Level FlightAware Approximate
01:53AM 37.4640 126.2171 78° East  Level FlightAware Approximate
01:54AM 37.4833 126.3777 90° East  Level FlightAware Approximate
01:55AM 37.4833 126.4333 90° East  Level FlightAware Approximate
01:56AM 37.4691 126.4505 90° East  Level Estimated
01:56AM 37.1370 126.2530 90° East 277 319 8,300  Level FlightAware
01:57AM 37.4691 126.4505 90° East  Level Estimated
01:57AM 37.1290 126.3860 94° East 251 289 7,300  Level FlightAware
01:58AM 37.4691 126.4505 90° East  Level Estimated
02:00AM 37.4022 126.4378 North  Level Estimated
02:01AM 37.4691 126.4505 North  Level Estimated
02:02AM 37.4691 126.4505 335° Northwest  Level Estimated
02:06AM 37.2930 126.6090 335° Northwest 175 201 3,200  Level FlightAware